Terminal Aerodrome Forecast
Issued by NWS

Home | Current Version | Previous Version | Text Only | Print | Product List | Glossary Off
Versions: 1 2 3 4 5 6 7 8 9 10 11 12 13 14 15 16 17 18 19 20 21

901
FTUS43 KUNR 112337
TAFGCC
TAF
KGCC 112337Z 1200/1224 33014KT P6SM BKN080
     FM120500 36010KT 2SM BR OVC006
     FM121700 16011KT P6SM OVC012=

USA.gov is the U.S. government's official web portal to all federal, state and local government web resources and services.